Time;durP1;ratioP1;P1;durP2;ratioP2;P2;SDS_P1;SDS_P2;PMS_P1;PMS_P2;Temp;Humidity;BMP_temperature;BMP_pressure;BME280_temperature;BME280_humidity;BME280_pressure;Samples;Min_cycle;Max_cycle;Signal;HPM_P1;HPM_P2
2022/05/19 00:01:47;;;;;;;3.42;1.23;;;;;;;26.66;37.47;101462.25;5075316;28;20074;-46
2022/05/19 00:04:16;;;;;;;3.55;1.00;;;;;;;26.61;37.54;101464.00;5091638;28;20459;-44
2022/05/19 00:06:44;;;;;;;3.15;1.25;;;;;;;26.54;37.62;101437.59;5075284;28;20028;-48
2022/05/19 00:09:13;;;;;;;4.07;1.30;;;;;;;26.61;37.79;101449.06;5076542;28;20077;-46
2022/05/19 00:11:42;;;;;;;2.38;1.15;;;;;;;26.61;37.50;101435.03;5076540;28;20093;-44
2022/05/19 00:14:11;;;;;;;4.38;1.40;;;;;;;26.60;37.92;101428.00;5075312;28;20029;-46
2022/05/19 00:16:40;;;;;;;3.85;1.00;;;;;;;26.59;37.50;101434.16;5076627;28;20082;-47
2022/05/19 00:19:09;;;;;;;3.40;1.30;;;;;;;26.60;37.70;101449.94;5076240;28;20029;-44
2022/05/19 00:21:37;;;;;;;2.80;0.82;;;;;;;26.58;37.51;101443.78;5091888;28;20024;-46
2022/05/19 00:24:06;;;;;;;3.63;1.38;;;;;;;26.61;37.53;101453.47;5074242;28;20033;-46
2022/05/19 00:26:35;;;;;;;4.30;1.27;;;;;;;26.53;37.62;101438.47;5076467;28;20025;-48
2022/05/19 00:29:04;;;;;;;4.88;1.30;;;;;;;26.59;37.48;101453.44;5076055;28;20048;-47
2022/05/19 00:31:32;;;;;;;5.10;1.38;;;;;;;26.52;37.52;101444.59;5075483;28;20056;-47
2022/05/19 00:34:02;;;;;;;3.92;0.95;;;;;;;26.49;37.74;101459.47;5074896;28;20398;-49
2022/05/19 00:36:29;;;;;;;5.30;1.48;;;;;;;26.52;37.54;101447.22;5075508;28;20025;-47
2022/05/19 00:38:58;;;;;;;4.72;1.02;;;;;;;26.52;37.69;101449.00;5075995;28;20032;-44
2022/05/19 00:41:27;;;;;;;4.25;1.20;;;;;;;26.57;37.51;101456.91;5074618;28;20425;-47
2022/05/19 00:43:59;;;;;;;3.70;1.23;;;;;;;26.51;37.68;101449.84;5075917;28;20035;-49
2022/05/19 00:46:34;;;;;;;1.85;0.80;;;;;;;26.50;37.78;101455.97;5075878;28;20017;-50
2022/05/19 00:49:13;;;;;;;2.35;1.00;;;;;;;26.50;37.79;101438.44;5075478;28;20016;-47
2022/05/19 00:52:01;;;;;;;3.33;1.20;;;;;;;26.52;37.51;101444.59;5075634;28;20043;-45
2022/05/19 00:54:37;;;;;;;4.75;1.48;;;;;;;26.46;37.85;101460.34;5074042;28;20028;-48
2022/05/19 00:57:08;;;;;;;3.85;1.27;;;;;;;26.48;37.81;101460.34;5074402;28;20032;-50
2022/05/19 00:59:41;;;;;;;4.97;1.30;;;;;;;26.48;37.62;101460.34;5075473;28;20033;-51
2022/05/19 01:02:12;;;;;;;4.57;1.23;;;;;;;26.49;37.62;101449.81;5074153;28;20055;-51
2022/05/19 01:05:05;;;;;;;3.10;0.90;;;;;;;26.43;37.96;101460.31;5075316;28;20058;-46
2022/05/19 01:07:46;;;;;;;3.95;1.38;;;;;;;26.43;37.60;101462.94;5071324;28;20036;-48
2022/05/19 01:10:15;;;;;;;3.08;1.33;;;;;;;26.36;38.09;101466.34;5075496;28;20051;-47
2022/05/19 01:12:48;;;;;;;3.00;1.08;;;;;;;26.35;38.16;101475.09;5075201;28;20050;-47
2022/05/19 01:15:17;;;;;;;2.92;1.27;;;;;;;26.39;37.89;101488.31;5075097;28;20028;-49
2022/05/19 01:17:45;;;;;;;4.43;1.00;;;;;;;26.33;38.07;101471.56;5073747;28;20086;-50
2022/05/19 01:20:26;;;;;;;4.63;1.50;;;;;;;26.36;38.14;101471.63;5075081;28;20024;-48
2022/05/19 01:23:05;;;;;;;1.92;0.77;;;;;;;26.36;37.89;101483.03;5074065;28;20024;-47
2022/05/19 01:25:43;;;;;;;4.25;1.38;;;;;;;26.31;38.06;101478.59;5073643;28;20504;-46
2022/05/19 01:28:11;;;;;;;3.80;1.42;;;;;;;26.29;38.45;101496.09;5075003;28;20044;-50
2022/05/19 01:30:40;;;;;;;3.13;1.00;;;;;;;26.34;38.04;101525.94;5074878;28;20032;-48
2022/05/19 01:33:09;;;;;;;4.05;1.20;;;;;;;26.32;37.75;101552.25;5075024;28;20025;-51
2022/05/19 01:35:36;;;;;;;3.17;0.93;;;;;;;26.34;37.86;101523.31;5075090;28;20036;-52
2022/05/19 01:38:09;;;;;;;5.05;1.33;;;;;;;26.34;37.99;101528.56;5074766;28;20029;-50
2022/05/19 01:40:57;;;;;;;3.97;1.40;;;;;;;26.34;38.01;101529.47;5074847;28;20025;-45
2022/05/19 01:43:53;;;;;;;3.75;1.40;;;;;;;26.34;37.89;101534.72;5074588;28;20492;-47
2022/05/19 01:46:34;;;;;;;4.05;1.20;;;;;;;26.36;37.98;101535.63;5070755;28;20424;-47
2022/05/19 01:49:06;;;;;;;3.95;1.23;;;;;;;26.33;38.05;101545.22;5074448;28;20028;-48
2022/05/19 01:51:54;;;;;;;4.15;0.98;;;;;;;26.33;38.12;101532.06;5074485;28;20016;-47
2022/05/19 01:54:42;;;;;;;4.45;1.60;;;;;;;26.27;38.01;101524.13;5069014;28;20044;-50
2022/05/19 01:57:31;;;;;;;4.53;1.27;;;;;;;26.32;38.15;101533.84;5073093;28;20028;-46
2022/05/19 02:00:02;;;;;;;5.50;1.83;;;;;;;26.27;38.09;101545.16;5073359;28;20362;-49
2022/05/19 02:02:49;;;;;;;3.97;1.00;;;;;;;26.28;37.83;101568.84;5074268;28;20024;-46
2022/05/19 02:05:23;;;;;;;2.28;1.00;;;;;;;26.29;38.09;101585.53;5073921;28;20060;-51
2022/05/19 02:07:53;;;;;;;6.80;1.60;;;;;;;26.32;37.99;101582.91;5074180;28;20039;-47
2022/05/19 02:10:25;;;;;;;2.67;0.98;;;;;;;26.21;38.06;101585.41;5074198;28;20035;-48
2022/05/19 02:12:53;;;;;;;3.45;1.67;;;;;;;26.13;38.40;101553.75;5073081;28;20016;-44
2022/05/19 02:15:26;;;;;;;3.72;1.08;;;;;;;26.11;38.44;101544.97;5073020;28;20024;-45
2022/05/19 02:17:55;;;;;;;3.35;1.27;;;;;;;26.03;38.47;101538.69;5073904;28;20029;-48
2022/05/19 02:20:25;;;;;;;4.25;1.60;;;;;;;26.00;38.74;101533.38;5074096;28;20024;-48
2022/05/19 02:22:54;;;;;;;5.15;1.52;;;;;;;25.88;38.91;101515.72;5073889;28;20066;-45
2022/05/19 02:25:27;;;;;;;5.28;1.75;;;;;;;25.99;38.79;101536.88;5073459;28;20044;-47
2022/05/19 02:28:14;;;;;;;3.60;1.27;;;;;;;26.02;38.53;101545.69;5072593;28;20024;-44
2022/05/19 02:30:43;;;;;;;5.40;1.38;;;;;;;26.04;38.64;101546.59;5073348;28;20036;-45
2022/05/19 02:33:21;;;;;;;5.05;1.60;;;;;;;25.96;38.93;101540.34;5073710;28;20035;-46
2022/05/19 02:35:49;;;;;;;5.75;1.60;;;;;;;25.97;38.54;101541.25;5073813;28;20031;-49
2022/05/19 02:38:20;;;;;;;4.40;1.70;;;;;;;25.96;38.96;101542.97;5073703;28;20025;-47
2022/05/19 02:40:49;;;;;;;3.70;1.00;;;;;;;26.06;38.50;101533.47;5073499;28;20024;-46
2022/05/19 02:43:18;;;;;;;6.15;1.55;;;;;;;25.89;38.57;101501.72;5073329;28;20017;-50
2022/05/19 02:45:47;;;;;;;4.35;1.50;;;;;;;25.98;38.84;101529.88;5073452;28;20024;-46
2022/05/19 02:48:17;;;;;;;2.47;0.90;;;;;;;25.97;38.71;101530.72;5073489;28;20095;-49
2022/05/19 02:50:47;;;;;;;6.05;1.65;;;;;;;25.96;38.53;101528.97;5073646;28;20024;-46
2022/05/19 02:53:16;;;;;;;4.55;1.40;;;;;;;25.90;38.84;101533.25;5073095;28;20405;-51
2022/05/19 02:55:45;;;;;;;4.13;1.45;;;;;;;25.92;38.81;101528.00;5072102;28;20020;-46
2022/05/19 02:58:15;;;;;;;3.80;1.33;;;;;;;25.88;38.69;101540.25;5073571;28;20017;-48
2022/05/19 03:00:45;;;;;;;4.93;1.30;;;;;;;25.89;38.82;101546.41;5073472;28;20072;-48
2022/05/19 03:03:14;;;;;;;6.30;1.35;;;;;;;25.88;38.77;101552.50;5073290;28;20029;-50
2022/05/19 03:05:43;;;;;;;5.35;1.63;;;;;;;25.89;38.83;101538.50;5073209;28;20056;-46
2022/05/19 03:08:12;;;;;;;3.30;1.30;;;;;;;25.85;39.08;101534.94;5073290;28;20139;-51
2022/05/19 03:10:43;;;;;;;5.32;1.67;;;;;;;25.84;39.02;101535.78;5072915;28;20088;-51
2022/05/19 03:13:18;;;;;;;6.90;1.33;;;;;;;25.84;38.85;101548.06;5073349;28;20100;-48
2022/05/19 03:15:47;;;;;;;5.25;1.55;;;;;;;25.82;39.21;101548.03;5072391;28;20024;-50
2022/05/19 03:18:16;;;;;;;5.25;1.40;;;;;;;25.85;38.96;101544.56;5073184;28;20547;-49
2022/05/19 03:20:45;;;;;;;5.25;1.50;;;;;;;25.82;38.98;101552.41;5073023;28;20042;-50
2022/05/19 03:23:14;;;;;;;3.65;1.30;;;;;;;25.77;38.93;101545.34;5072972;28;20101;-46
2022/05/19 03:25:43;;;;;;;4.28;1.60;;;;;;;25.79;39.18;101545.38;5072787;28;20044;-48
2022/05/19 03:28:16;;;;;;;3.97;1.35;;;;;;;25.74;39.03;101544.41;5072013;28;20035;-47
2022/05/19 03:30:45;;;;;;;3.88;1.30;;;;;;;25.81;39.03;101555.91;5072833;28;20028;-46
2022/05/19 03:33:14;;;;;;;4.22;1.70;;;;;;;25.73;38.88;101546.16;5072821;28;20029;-45
2022/05/19 03:35:43;;;;;;;6.10;1.55;;;;;;;25.79;39.22;101548.88;5071394;28;20024;-47
2022/05/19 03:38:12;;;;;;;5.18;1.73;;;;;;;25.79;38.87;101548.88;5072474;28;20025;-47
2022/05/19 03:40:41;;;;;;;3.97;1.45;;;;;;;25.82;38.82;101560.28;5073306;28;20470;-48
2022/05/19 03:43:08;;;;;;;3.80;1.48;;;;;;;25.81;39.04;101559.44;5072927;28;20079;-51
2022/05/19 03:45:37;;;;;;;6.50;2.00;;;;;;;25.77;38.93;101512.94;5072833;28;20021;-48
2022/05/19 03:48:05;;;;;;;8.27;1.60;;;;;;;25.71;39.18;101531.22;5072945;28;20081;-49
2022/05/19 03:50:34;;;;;;;4.60;1.30;;;;;;;25.79;39.01;101529.59;5072921;28;20029;-48
2022/05/19 03:53:03;;;;;;;4.03;1.60;;;;;;;25.78;38.92;101559.38;5072942;28;20028;-50
2022/05/19 03:55:31;;;;;;;6.00;1.30;;;;;;;25.77;38.87;101565.50;5072972;28;20040;-47
2022/05/19 03:58:00;;;;;;;5.70;1.58;;;;;;;25.76;38.98;101553.22;5073078;28;20025;-48
2022/05/19 04:00:28;;;;;;;3.95;1.55;;;;;;;25.63;39.30;101554.75;5072751;28;20115;-50
2022/05/19 04:02:57;;;;;;;4.20;1.40;;;;;;;25.71;39.13;101571.53;5072778;28;20025;-50
2022/05/19 04:05:25;;;;;;;6.80;1.63;;;;;;;25.71;39.13;101575.91;5072279;28;20025;-49
2022/05/19 04:07:54;;;;;;;3.97;1.30;;;;;;;25.69;39.34;101590.75;5072694;28;20025;-48
2022/05/19 04:10:22;;;;;;;4.90;1.40;;;;;;;25.71;38.92;101582.06;5072682;28;20155;-51
2022/05/19 04:12:51;;;;;;;4.68;1.48;;;;;;;25.68;39.10;101576.75;5072719;28;20021;-50
2022/05/19 04:15:19;;;;;;;5.32;1.55;;;;;;;25.67;38.93;101563.56;5072443;28;20017;-50
2022/05/19 04:17:48;;;;;;;5.60;1.55;;;;;;;25.66;39.04;101561.78;5072614;28;20033;-50
2022/05/19 04:20:17;;;;;;;3.83;1.33;;;;;;;25.66;39.04;101585.44;5072621;28;20031;-50
2022/05/19 04:22:45;;;;;;;5.18;1.30;;;;;;;25.64;39.31;101580.19;5072481;28;20085;-47
2022/05/19 04:25:14;;;;;;;7.82;1.63;;;;;;;25.66;39.30;101598.59;5075823;28;20045;-48
2022/05/19 04:27:42;;;;;;;4.03;1.52;;;;;;;25.70;38.96;101603.03;5075735;28;20051;-47
2022/05/19 04:30:11;;;;;;;4.78;1.48;;;;;;;25.53;38.97;101574.75;5076360;28;20025;-50
2022/05/19 04:32:40;;;;;;;4.10;1.23;;;;;;;25.59;39.25;101606.38;5076127;28;20458;-49
2022/05/19 04:35:08;;;;;;;6.13;1.67;;;;;;;25.61;39.19;101623.06;5075897;28;20037;-50
2022/05/19 04:37:35;;;;;;;3.85;1.15;;;;;;;25.62;39.44;101630.09;5076040;28;20103;-49
2022/05/19 04:40:06;;;;;;;3.92;1.40;;;;;;;25.59;39.05;101632.66;5074902;28;20107;-49
2022/05/19 04:42:34;;;;;;;6.53;1.45;;;;;;;25.61;39.31;101617.81;5075875;28;20085;-48
2022/05/19 04:45:03;;;;;;;4.75;1.52;;;;;;;25.64;39.08;101624.84;5074626;28;20474;-45
2022/05/19 04:47:32;;;;;;;3.83;1.30;;;;;;;25.60;39.27;101626.53;5075717;28;20028;-47
2022/05/19 04:50:00;;;;;;;4.55;1.67;;;;;;;25.58;39.25;101630.88;5075655;28;20033;-48
2022/05/19 04:52:29;;;;;;;3.30;1.33;;;;;;;25.58;39.14;101644.03;5075817;28;20115;-45
2022/05/19 04:54:57;;;;;;;5.38;1.50;;;;;;;25.57;39.30;101647.50;5075803;28;20031;-47
2022/05/19 04:57:26;;;;;;;10.23;1.63;;;;;;;25.55;39.28;101636.09;5075729;28;20021;-46
2022/05/19 04:59:55;;;;;;;7.07;1.63;;;;;;;25.61;39.25;101649.34;5075478;28;20090;-50
2022/05/19 05:02:23;;;;;;;4.63;1.85;;;;;;;25.62;38.95;101671.22;5075299;28;20537;-49
2022/05/19 05:04:52;;;;;;;4.15;1.30;;;;;;;25.55;38.87;101680.75;5075405;28;20043;-49
2022/05/19 05:07:20;;;;;;;7.22;1.85;;;;;;;25.63;38.97;101686.13;5075478;28;20032;-44
2022/05/19 05:09:49;;;;;;;3.88;1.33;;;;;;;25.61;39.15;101682.59;5075448;28;20103;-50
2022/05/19 05:12:17;;;;;;;6.07;1.95;;;;;;;25.58;39.30;101679.91;5075212;28;20071;-50
2022/05/19 05:14:46;;;;;;;4.75;1.58;;;;;;;25.59;39.03;101687.84;5075177;28;20024;-50
2022/05/19 05:17:14;;;;;;;5.78;1.90;;;;;;;25.59;39.09;101690.47;5075480;28;20032;-48
2022/05/19 05:19:43;;;;;;;5.82;1.42;;;;;;;25.54;39.02;101701.75;5073479;28;20025;-48
2022/05/19 05:22:11;;;;;;;5.15;1.67;;;;;;;25.64;39.00;101695.78;5074917;28;20047;-48
2022/05/19 05:24:40;;;;;;;7.40;1.98;;;;;;;25.65;38.75;101694.06;5074934;28;20037;-48
2022/05/19 05:27:09;;;;;;;7.05;2.10;;;;;;;25.65;38.78;101696.69;5074871;28;20056;-50
2022/05/19 05:29:38;;;;;;;5.30;1.38;;;;;;;25.73;38.63;101693.31;5074827;28;20032;-49
2022/05/19 05:32:06;;;;;;;5.40;1.25;;;;;;;25.72;38.74;101682.78;5074884;28;20070;-51
2022/05/19 05:34:35;;;;;;;9.32;1.58;;;;;;;25.77;38.61;101683.75;5074631;28;20028;-51
2022/05/19 05:37:04;;;;;;;4.60;1.15;;;;;;;25.82;38.46;101681.19;5075059;28;20027;-50
2022/05/19 05:39:32;;;;;;;5.75;1.58;;;;;;;25.86;38.29;101681.25;5074013;28;20052;-45
2022/05/19 05:42:01;;;;;;;4.40;1.13;;;;;;;25.82;38.32;101679.44;5074715;28;20032;-48
2022/05/19 05:44:29;;;;;;;6.25;1.63;;;;;;;25.89;38.22;101698.84;5074459;28;20470;-47
2022/05/19 05:46:58;;;;;;;3.40;1.63;;;;;;;26.01;38.07;101709.56;5074768;28;20378;-50
2022/05/19 05:49:26;;;;;;;5.15;1.70;;;;;;;26.05;37.90;101723.63;5074641;28;20029;-50
2022/05/19 05:51:54;;;;;;;4.28;1.30;;;;;;;26.13;37.74;101711.53;5074646;28;20024;-47
2022/05/19 05:54:22;;;;;;;2.90;1.00;;;;;;;26.23;37.73;101718.69;5074195;28;20481;-49
2022/05/19 05:56:52;;;;;;;5.72;1.88;;;;;;;26.28;37.54;101720.53;5074325;28;20040;-44
2022/05/19 05:59:20;;;;;;;4.70;1.38;;;;;;;26.32;37.66;101738.09;5072992;28;20028;-46
2022/05/19 06:01:49;;;;;;;3.45;1.30;;;;;;;26.34;37.63;101746.91;5074020;28;20113;-45
2022/05/19 06:04:17;;;;;;;4.45;1.40;;;;;;;26.41;37.81;101756.66;5073933;28;20164;-47
2022/05/19 06:06:46;;;;;;;4.75;1.70;;;;;;;26.45;37.80;101753.22;5074093;28;20016;-52
2022/05/19 06:09:15;;;;;;;6.35;1.38;;;;;;;26.49;37.74;101747.13;5073978;28;20029;-47
2022/05/19 06:11:44;;;;;;;5.88;1.45;;;;;;;26.51;37.73;101747.16;5074105;28;20027;-49
2022/05/19 06:14:12;;;;;;;3.80;1.65;;;;;;;26.56;37.60;101758.63;5073950;28;20074;-48
2022/05/19 06:16:41;;;;;;;3.95;1.40;;;;;;;26.62;37.57;101771.00;5074209;28;20025;-49
2022/05/19 06:19:09;;;;;;;4.13;1.48;;;;;;;26.69;37.55;101765.84;5073797;28;20041;-51
2022/05/19 06:21:39;;;;;;;4.88;1.63;;;;;;;26.67;37.85;101761.41;5074078;28;20515;-46
2022/05/19 06:24:09;;;;;;;5.13;1.73;;;;;;;26.73;37.80;101772.03;5073523;28;20033;-47
2022/05/19 06:26:39;;;;;;;5.82;1.15;;;;;;;26.80;37.87;101771.31;5074238;28;20016;-50
2022/05/19 06:29:09;;;;;;;5.10;1.48;;;;;;;26.82;37.77;101761.66;5073911;28;20020;-48
2022/05/19 06:31:38;;;;;;;4.45;1.30;;;;;;;26.74;37.72;101751.84;5073775;28;20027;-51
2022/05/19 06:34:06;;;;;;;5.32;1.70;;;;;;;26.91;37.68;101776.69;5073614;28;20023;-50
2022/05/19 06:36:35;;;;;;;4.60;1.38;;;;;;;26.93;37.53;101774.97;5073145;28;20427;-50
2022/05/19 06:39:04;;;;;;;6.38;1.42;;;;;;;27.01;37.29;101779.47;5072663;28;20032;-47
2022/05/19 06:42:14;;;;;;;4.95;1.40;;;;;;;27.06;37.60;101780.38;5073398;28;20542;-47
2022/05/19 06:44:19;;;;;;;5.43;1.52;;;;;;;27.09;37.58;101780.44;5069762;28;20036;-48
2022/05/19 06:46:48;;;;;;;5.43;1.80;;;;;;;27.10;37.51;101780.47;5073045;28;20062;-51
2022/05/19 06:49:17;;;;;;;5.32;1.48;;;;;;;27.17;37.66;101786.69;5073531;28;20023;-51
2022/05/19 06:51:46;;;;;;;5.70;1.70;;;;;;;27.25;37.48;101782.38;5072401;28;20370;-50
2022/05/19 06:54:14;;;;;;;7.45;1.50;;;;;;;27.28;37.41;101784.19;5073502;28;20394;-52
2022/05/19 06:56:43;;;;;;;6.35;1.42;;;;;;;27.32;37.43;101780.69;5073389;28;20100;-47
2022/05/19 06:59:11;;;;;;;5.90;1.73;;;;;;;27.29;37.30;101778.06;5073259;28;20025;-43
2022/05/19 07:01:40;;;;;;;3.00;1.13;;;;;;;27.40;37.39;101786.06;5073386;28;20027;-49
2022/05/19 07:04:09;;;;;;;4.93;1.50;;;;;;;27.41;37.42;101783.47;5073191;28;20040;-52
2022/05/19 07:06:36;;;;;;;6.07;1.50;;;;;;;27.47;37.26;101785.31;5072378;28;20115;-46
2022/05/19 07:09:04;;;;;;;6.57;1.60;;;;;;;27.53;37.24;101773.94;5072420;28;20024;-46
2022/05/19 07:11:33;;;;;;;6.43;1.55;;;;;;;27.53;37.27;101771.31;5072776;28;20035;-46
2022/05/19 07:14:04;;;;;;;4.35;1.38;;;;;;;27.61;37.40;101769.66;5073220;28;20449;-47
2022/05/19 07:16:34;;;;;;;6.63;1.83;;;;;;;27.67;37.24;101784.66;5073226;28;20466;-48
2022/05/19 07:21:50;;;;;;;5.57;1.50;;;;;;;27.75;37.30;101782.97;5064912;28;20037;-46
2022/05/19 07:24:20;;;;;;;6.55;2.00;;;;;;;27.77;37.29;101781.22;5072869;28;20114;-47
2022/05/19 07:26:52;;;;;;;7.68;1.70;;;;;;;27.82;36.92;101778.63;5073163;28;20021;-49
2022/05/19 07:29:21;;;;;;;8.40;2.33;;;;;;;27.85;37.15;101776.03;5072846;28;20024;-49
2022/05/19 07:31:50;;;;;;;8.85;1.58;;;;;;;27.80;37.07;101765.44;5073051;28;20466;-51
2022/05/19 07:34:21;;;;;;;5.65;2.10;;;;;;;27.97;37.13;101789.31;5073113;28;20032;-51
2022/05/19 07:36:50;;;;;;;7.30;2.08;;;;;;;28.00;36.80;101788.47;5073388;28;20032;-51
2022/05/19 07:39:18;;;;;;;8.40;1.92;;;;;;;28.04;36.83;101799.06;5073001;28;20028;-49
2022/05/19 07:41:47;;;;;;;5.82;1.75;;;;;;;28.03;36.96;101789.38;5072981;28;20028;-45
2022/05/19 07:44:16;;;;;;;7.43;1.65;;;;;;;28.11;37.01;101800.03;5072779;28;20089;-48
2022/05/19 07:46:44;;;;;;;5.13;1.40;;;;;;;28.13;36.87;101790.38;5072994;28;20028;-45
2022/05/19 07:49:13;;;;;;;5.53;1.90;;;;;;;28.18;36.75;101790.41;5072828;28;20541;-46
2022/05/19 07:51:43;;;;;;;7.65;2.03;;;;;;;28.25;36.81;101802.78;5072981;28;20036;-50
2022/05/19 07:54:14;;;;;;;6.95;1.92;;;;;;;28.25;36.71;101789.59;5072995;28;20490;-51
2022/05/19 07:56:42;;;;;;;4.78;1.80;;;;;;;28.32;36.74;101801.94;5072977;28;20363;-48
2022/05/19 07:59:15;;;;;;;6.97;1.60;;;;;;;28.38;36.48;101805.50;5076311;28;20033;-44
2022/05/19 08:01:45;;;;;;;7.05;1.45;;;;;;;28.43;36.72;101803.81;5076728;28;20078;-51
2022/05/19 08:04:14;;;;;;;6.88;1.40;;;;;;;28.45;36.50;101800.28;5076335;28;20029;-50
2022/05/19 08:06:43;;;;;;;6.13;2.08;;;;;;;28.47;36.65;101806.47;5075544;28;20029;-46
2022/05/19 08:11:59;;;;;;;10.02;2.03;;;;;;;28.51;36.33;101807.38;5075655;28;20064;-45
2022/05/19 08:17:15;;;;;;;7.97;1.77;;;;;;;28.52;36.48;101808.25;5072130;28;20068;-50
2022/05/19 08:19:43;;;;;;;7.05;2.10;;;;;;;28.43;36.36;101815.22;5076492;28;20486;-46
2022/05/19 08:22:12;;;;;;;9.15;2.30;;;;;;;28.45;35.89;101810.84;5076060;28;20079;-46
2022/05/19 08:24:39;;;;;;;8.90;2.33;;;;;;;28.40;35.30;101815.19;5075906;28;20036;-48
2022/05/19 08:27:08;;;;;;;10.18;2.05;;;;;;;28.35;35.30;101801.97;5076105;28;20081;-47
2022/05/19 08:29:40;;;;;;;9.48;2.42;;;;;;;28.30;34.96;101805.47;5076150;28;20050;-50
2022/05/19 08:32:07;;;;;;;7.50;2.38;;;;;;;28.33;34.07;101809.00;5076100;28;20025;-48
2022/05/19 08:34:36;;;;;;;11.70;2.90;;;;;;;28.20;33.40;101793.94;5075954;28;20035;-51
2022/05/19 08:37:04;;;;;;;14.57;2.13;;;;;;;28.26;33.89;101811.56;5076202;28;20102;-50
2022/05/19 08:39:33;;;;;;;8.25;2.30;;;;;;;28.19;34.07;101808.00;5075957;28;20527;-50
2022/05/19 08:42:04;;;;;;;15.63;3.78;;;;;;;28.18;33.31;101811.50;5075851;28;20417;-45
2022/05/19 08:44:40;;;;;;;10.68;2.92;;;;;;;28.23;32.88;101820.34;5075857;28;20024;-44
2022/05/19 08:47:10;;;;;;;10.57;2.47;;;;;;;28.19;32.95;101811.53;5074120;28;20386;-49
2022/05/19 08:49:47;;;;;;;9.20;2.10;;;;;;;28.14;32.86;101817.63;5075698;28;20034;-47
2022/05/19 08:52:17;;;;;;;13.43;2.35;;;;;;;28.24;32.85;101818.59;5075663;28;20028;-47
2022/05/19 08:54:48;;;;;;;9.43;2.28;;;;;;;28.28;32.22;101820.38;5075679;28;20082;-47
2022/05/19 08:57:31;;;;;;;11.93;2.70;;;;;;;28.18;33.09;101817.69;5074449;28;20545;-46
2022/05/19 09:00:04;;;;;;;12.52;2.38;;;;;;;28.15;32.22;101819.41;5074288;28;20416;-47
2022/05/19 09:02:39;;;;;;;9.20;2.38;;;;;;;28.15;31.43;101828.22;5075504;28;20549;-46
2022/05/19 09:05:12;;;;;;;;;;;;;;;28.22;32.28;101826.50;5075932;28;20040;-48
2022/05/19 09:08:00;;;;;;;10.50;3.42;;;;;;;28.14;32.38;101812.34;5075443;28;19947;-44
2022/05/19 09:10:32;;;;;;;8.73;2.63;;;;;;;28.16;32.09;101816.78;5075517;28;20028;-52
2022/05/19 09:13:22;;;;;;;11.65;2.72;;;;;;;28.14;32.80;101818.53;5075144;28;20446;-58
2022/05/19 09:15:52;;;;;;;11.05;2.97;;;;;;;28.16;32.76;101822.06;5059089;28;20074;-57
2022/05/19 09:18:21;;;;;;;8.45;2.60;;;;;;;28.26;32.60;101817.75;5074772;28;20031;-58
2022/05/19 09:20:54;;;;;;;11.27;2.17;;;;;;;28.24;33.23;101821.22;5073881;28;20027;-54
2022/05/19 09:23:23;;;;;;;12.65;3.30;;;;;;;28.14;32.33;101821.16;5075193;28;20529;-48
2022/05/19 09:25:54;;;;;;;15.43;3.10;;;;;;;28.05;32.46;101821.94;5074891;28;20402;-48
2022/05/19 09:28:22;;;;;;;14.95;3.78;;;;;;;28.07;33.06;101823.69;5075099;28;20060;-50
2022/05/19 09:30:54;;;;;;;11.13;3.28;;;;;;;28.08;33.10;101818.41;5073584;28;20466;-45
2022/05/19 09:33:34;;;;;;;8.80;2.88;;;;;;;28.08;32.45;101818.41;5074959;28;20032;-48
2022/05/19 09:36:10;;;;;;;11.60;2.92;;;;;;;28.22;32.86;101820.31;5073601;28;20044;-49
2022/05/19 09:38:49;;;;;;;11.27;3.13;;;;;;;28.19;33.42;101811.53;5073433;28;20024;-45
2022/05/19 09:41:32;;;;;;;12.07;2.72;;;;;;;28.28;32.97;101817.75;5074062;28;20465;-46
2022/05/19 09:44:03;;;;;;;9.23;2.80;;;;;;;28.22;32.92;101820.31;5073847;28;20032;-48
2022/05/19 09:46:44;;;;;;;12.80;3.65;;;;;;;28.28;32.91;101818.66;5074850;28;20024;-44
2022/05/19 09:49:33;;;;;;;6.97;2.58;;;;;;;28.25;32.86;101826.53;5073496;28;20159;-47
2022/05/19 09:52:04;;;;;;;13.43;3.03;;;;;;;28.23;33.01;101823.00;5058052;28;20052;-49
2022/05/19 09:54:34;;;;;;;8.70;3.03;;;;;;;28.29;32.82;101820.41;5074258;28;20466;-45
2022/05/19 09:57:07;;;;;;;16.95;3.17;;;;;;;28.22;32.47;101836.16;5074027;28;20028;-48
2022/05/19 09:59:38;;;;;;;11.85;2.88;;;;;;;28.23;32.92;101833.53;5073195;28;20027;-45
2022/05/19 10:02:19;;;;;;;11.88;3.22;;;;;;;28.01;32.98;101838.59;5074003;28;20107;-52
2022/05/19 10:04:54;;;;;;;12.90;3.03;;;;;;;28.14;31.62;101831.72;5073964;28;20024;-48
2022/05/19 10:07:25;;;;;;;10.48;2.08;;;;;;;28.00;30.97;101833.31;5074251;28;20025;-52
2022/05/19 10:09:56;;;;;;;14.30;2.78;;;;;;;27.91;31.02;101836.75;5074062;28;20031;-51
2022/05/19 10:12:26;;;;;;;13.18;3.10;;;;;;;27.58;30.68;101836.38;5073763;28;20458;-50
2022/05/19 10:15:11;;;;;;;12.35;2.47;;;;;;;27.43;31.44;101833.53;5073658;28;20029;-45
2022/05/19 10:18:11;;;;;;;11.48;2.85;;;;;;;27.20;31.51;101830.63;5074001;28;20434;-47
2022/05/19 10:21:06;;;;;;;11.80;2.65;;;;;;;27.11;30.84;101831.38;5068941;28;20029;-49
2022/05/19 10:23:38;;;;;;;;;;;;;;;27.17;31.18;101826.19;5074313;28;20024;-50
2022/05/19 10:26:19;;;;;;;10.77;2.80;;;;;;;26.70;31.17;101840.41;5072714;28;19917;-50
2022/05/19 10:32:36;;;;;;;8.95;2.47;;;;;;;26.53;31.00;101840.16;5069931;28;20040;-47
2022/05/19 10:35:30;;;;;;;11.50;2.88;;;;;;;26.53;31.78;101835.78;5071643;28;20485;-48
2022/05/19 10:38:08;;;;;;;7.15;2.40;;;;;;;26.45;30.95;101828.63;5069807;28;20093;-46
2022/05/19 10:41:00;;;;;;;14.95;3.03;;;;;;;26.41;31.30;101837.31;5072876;28;20106;-47
2022/05/19 10:43:56;;;;;;;12.68;3.03;;;;;;;26.35;31.53;101838.09;5069203;28;20044;-47
2022/05/19 10:46:27;;;;;;;7.05;2.40;;;;;;;26.37;31.53;101834.66;5069043;28;20033;-48
2022/05/19 10:49:24;;;;;;;9.27;2.83;;;;;;;26.29;31.60;101830.13;5072101;28;20158;-47
2022/05/19 10:52:20;;;;;;;7.45;2.83;;;;;;;26.39;31.57;101838.16;5069558;28;20036;-51
2022/05/19 10:54:56;;;;;;;12.35;3.30;;;;;;;26.43;31.63;101839.13;5073595;28;20021;-52
2022/05/19 10:57:40;;;;;;;10.38;2.78;;;;;;;26.54;32.16;101829.66;5073769;28;20043;-50
2022/05/19 11:00:22;;;;;;;8.18;2.20;;;;;;;26.63;32.07;101828.03;5073592;28;20048;-51
2022/05/19 11:03:12;;;;;;;14.30;3.00;;;;;;;26.45;31.62;101831.25;5088871;28;20428;-52
2022/05/19 11:06:01;;;;;;;11.35;2.85;;;;;;;26.46;31.74;101825.13;5073065;28;20489;-48
2022/05/19 11:08:55;;;;;;;17.50;3.65;;;;;;;26.32;31.75;101831.06;5072184;28;20041;-51
2022/05/19 11:11:54;;;;;;;11.40;2.80;;;;;;;25.93;32.38;101827.72;5073207;28;20033;-49
2022/05/19 11:14:46;;;;;;;8.65;2.25;;;;;;;25.80;32.43;101828.38;5068875;28;20356;-47
2022/05/19 11:17:19;;;;;;;18.25;4.45;;;;;;;25.85;32.45;101829.31;5064171;28;20142;-49
2022/05/19 11:19:50;;;;;;;12.52;3.28;;;;;;;25.84;32.62;101824.03;5071855;28;20071;-47
2022/05/19 11:22:23;;;;;;;9.75;2.60;;;;;;;25.86;32.68;101814.44;5073336;28;20025;-45
2022/05/19 11:27:53;;;;;;;12.50;3.08;;;;;;;25.98;32.64;101822.53;5068989;28;20036;-49
2022/05/19 11:30:37;;;;;;;12.43;3.10;;;;;;;25.93;32.45;101824.19;5073067;28;20032;-46
2022/05/19 11:33:13;;;;;;;13.73;2.92;;;;;;;25.96;32.98;101823.38;5077291;28;20096;-47
2022/05/19 11:35:46;;;;;;;12.73;2.78;;;;;;;26.01;32.77;101826.97;5077299;28;20031;-47
2022/05/19 11:38:15;;;;;;;10.88;2.65;;;;;;;26.01;33.12;101826.97;5077218;28;20035;-51
2022/05/19 11:41:05;;;;;;;12.25;2.75;;;;;;;26.09;32.63;101841.16;5076883;28;20024;-48
2022/05/19 11:43:55;;;;;;;14.02;3.03;;;;;;;26.09;32.85;101831.50;5075864;28;20389;-47
2022/05/19 11:46:31;;;;;;;12.63;3.00;;;;;;;26.18;32.78;101832.56;5076838;28;20362;-47
2022/05/19 11:55:26;;;;;;;9.27;2.72;;;;;;;26.25;32.50;101831.81;5068117;28;20493;-49
2022/05/19 11:58:04;;;;;;;13.30;2.70;;;;;;;26.27;32.19;101842.38;5076869;28;20111;-46
2022/05/19 12:00:36;;;;;;;11.68;3.00;;;;;;;26.24;32.56;101841.44;5075341;28;20025;-46
2022/05/19 12:03:43;;;;;;;14.18;2.92;;;;;;;26.35;32.71;101830.22;5076538;28;20017;-49
2022/05/19 12:06:12;;;;;;;14.05;3.20;;;;;;;26.26;32.53;101837.97;5073271;28;20481;-49
2022/05/19 12:08:52;;;;;;;11.98;3.13;;;;;;;26.15;32.77;101829.88;5076784;28;20024;-47
2022/05/19 12:11:24;;;;;;;12.20;2.70;;;;;;;26.15;32.78;101828.13;5075194;28;20032;-46